Time;durP1;ratioP1;P1;durP2;ratioP2;P2;SDS_P1;SDS_P2;PMS_P1;PMS_P2;Temp;Humidity;BMP_temperature;BMP_pressure;BME280_temperature;BME280_humidity;BME280_pressure;Samples;Min_cycle;Max_cycle;Signal;HPM_P1;HPM_P2
2023/02/16 00:00:54;;;;;;;68.50;38.00;;;;;;;-146.25;100.00;52481.75;2079392;28;31984;-72
2023/02/16 00:01:57;;;;;;;71.93;39.90;;;;;;;-146.25;100.00;52453.34;2079026;28;34985;-72
2023/02/16 00:02:58;;;;;;;71.85;40.45;;;;;;;-146.25;100.00;52429.03;2079846;28;21017;-72
2023/02/16 00:04:17;;;;;;;71.10;38.15;;;;;;;-146.25;100.00;52441.19;2079527;28;36914;-72
2023/02/16 00:05:33;;;;;;;70.00;38.35;;;;;;;-146.25;100.00;52439.16;2079405;28;32900;-72
2023/02/16 00:06:35;;;;;;;67.80;37.47;;;;;;;-146.25;100.00;52471.59;2081450;28;34752;-72
2023/02/16 00:07:37;;;;;;;73.65;38.42;;;;;;;-146.25;100.00;52435.09;2080775;28;34659;-72
2023/02/16 00:08:39;;;;;;;73.13;40.05;;;;;;;-146.25;100.00;52441.19;2081173;28;20041;-72
2023/02/16 00:09:41;;;;;;;72.93;41.20;;;;;;;-146.25;100.00;52453.34;2080185;28;37116;-72
2023/02/16 00:13:46;;;;;;;71.43;37.97;;;;;;;-146.25;100.00;52473.63;2080974;28;38725;-73
2023/02/16 00:14:51;;;;;;;68.47;37.53;;;;;;;-146.25;100.00;52467.56;2081232;28;32829;-72
2023/02/16 00:15:54;;;;;;;69.00;38.33;;;;;;;-146.25;100.00;52433.06;2079885;28;35939;-72
2023/02/16 00:16:58;;;;;;;72.60;38.70;;;;;;;-146.25;100.00;52461.47;2064020;28;33796;-72
2023/02/16 00:18:11;;;;;;;77.15;38.13;;;;;;;-146.25;100.00;52422.94;2064849;28;33660;-72
2023/02/16 00:19:25;;;;;;;73.32;38.97;;;;;;;-146.25;100.00;52433.06;2072138;28;39523;-72
2023/02/16 00:20:29;;;;;;;73.50;40.28;;;;;;;-146.25;100.00;52467.56;2075775;28;33010;-72
2023/02/16 00:21:31;;;;;;;71.68;37.72;;;;;;;-146.25;100.00;52461.47;2080827;28;34676;-72
2023/02/16 00:22:32;;;;;;;70.70;39.28;;;;;;;-146.25;100.00;52435.09;2080833;28;34925;-72
2023/02/16 00:23:34;;;;;;;76.75;38.75;;;;;;;-146.25;100.00;52447.28;2080902;28;35141;-72
2023/02/16 00:24:36;;;;;;;65.72;37.85;;;;;;;-146.25;100.00;52435.09;2080212;28;36209;-72
2023/02/16 00:25:38;;;;;;;72.97;40.25;;;;;;;-146.25;100.00;52445.25;2080837;28;31316;-72
2023/02/16 00:26:41;;;;;;;66.45;38.95;;;;;;;-146.25;100.00;52443.22;2080897;28;38091;-72
2023/02/16 00:27:43;;;;;;;72.85;38.38;;;;;;;-146.25;100.00;52398.59;2079643;28;35892;-72
2023/02/16 00:28:49;;;;;;;67.25;37.00;;;;;;;-146.25;100.00;52449.31;2072570;28;20054;-73
2023/02/16 00:29:50;;;;;;;72.97;38.78;;;;;;;-146.25;100.00;52459.44;2064704;28;23941;-72
2023/02/16 00:30:52;;;;;;;76.13;40.42;;;;;;;-146.25;100.00;52433.06;2072350;28;28668;-72
2023/02/16 00:31:56;;;;;;;76.57;39.55;;;;;;;-146.25;100.00;52493.91;2072061;28;34976;-71
2023/02/16 00:33:00;;;;;;;80.25;40.58;;;;;;;-146.25;100.00;52441.19;2063793;28;30357;-72
2023/02/16 00:34:30;;;;;;;72.00;38.47;;;;;;;-146.25;100.00;52477.69;2072810;28;27024;-72
2023/02/16 00:35:31;;;;;;;72.70;38.05;;;;;;;-146.25;100.00;52459.44;2072693;28;20034;-72
2023/02/16 00:36:33;;;;;;;63.50;36.20;;;;;;;-146.25;99.85;52485.81;2072013;28;35080;-72
2023/02/16 00:37:35;;;;;;;68.03;37.00;;;;;;;-146.25;99.95;52453.34;2071674;28;37008;-72
2023/02/16 00:38:37;;;;;;;71.00;38.25;;;;;;;-146.25;100.00;52473.63;2072656;28;20038;-72
2023/02/16 00:39:41;;;;;;;71.85;36.40;;;;;;;-146.25;100.00;52461.47;2071918;28;20989;-72
2023/02/16 00:40:43;;;;;;;65.97;38.28;;;;;;;-146.25;100.00;52445.25;2072289;28;30113;-72
2023/02/16 00:41:52;;;;;;;70.00;37.17;;;;;;;-146.25;100.00;52475.66;2080590;28;28901;-72
2023/02/16 00:42:54;;;;;;;75.43;39.53;;;;;;;-146.25;100.00;52418.88;2071212;28;32395;-72
2023/02/16 00:43:58;;;;;;;69.70;37.45;;;;;;;-146.25;100.00;52465.53;2074118;28;20030;-72
2023/02/16 00:45:00;;;;;;;72.30;36.75;;;;;;;-146.25;100.00;52447.28;2081092;28;27075;-71
2023/02/16 00:46:02;;;;;;;72.47;38.25;;;;;;;-146.25;100.00;52487.81;2080345;28;31920;-71
2023/02/16 00:47:19;;;;;;;68.25;37.45;;;;;;;-146.25;100.00;52473.63;2071462;28;28510;-72
2023/02/16 00:48:23;;;;;;;66.63;37.30;;;;;;;-146.25;100.00;52469.56;2074537;28;30164;-72
2023/02/16 00:49:27;;;;;;;69.35;38.28;;;;;;;-146.25;100.00;52439.16;2080827;28;20081;-71
2023/02/16 00:50:32;;;;;;;71.63;36.88;;;;;;;-146.25;100.00;52463.50;2081452;28;20038;-72
2023/02/16 00:51:34;;;;;;;63.35;36.17;;;;;;;-146.25;100.00;52453.34;2080009;28;32435;-72
2023/02/16 00:52:41;;;;;;;69.30;36.30;;;;;;;-146.25;100.00;52422.94;2080345;28;30271;-72
2023/02/16 00:53:43;;;;;;;66.50;37.05;;;;;;;-146.25;100.00;52420.91;2081232;28;20921;-72
2023/02/16 00:54:45;;;;;;;66.38;36.03;;;;;;;-146.25;100.00;52461.47;2080284;28;20041;-71
2023/02/16 00:55:46;;;;;;;65.25;37.58;;;;;;;-146.25;100.00;52469.56;2080021;28;33492;-71
2023/02/16 00:56:48;;;;;;;69.75;37.92;;;;;;;-146.25;100.00;52453.34;2072358;28;20165;-72
2023/02/16 00:58:25;;;;;;;73.95;38.00;;;;;;;-146.25;100.00;52481.75;2064012;28;20101;-71
2023/02/16 00:59:27;;;;;;;67.75;35.35;;;;;;;-146.25;100.00;52491.88;2077149;28;20034;-71
2023/02/16 01:01:01;;;;;;;67.97;35.55;;;;;;;-146.25;100.00;52455.38;2080135;28;32133;-73
2023/02/16 01:02:03;;;;;;;65.45;36.10;;;;;;;-146.25;99.87;52443.22;2079428;28;30707;-72
2023/02/16 01:03:14;;;;;;;67.88;37.63;;;;;;;-146.25;100.00;52467.56;2071576;28;34667;-73
2023/02/16 01:04:22;;;;;;;73.30;36.85;;;;;;;-146.25;100.00;52465.53;2073614;28;20132;-73
2023/02/16 01:05:24;;;;;;;67.10;36.50;;;;;;;-146.25;99.96;52493.91;2080702;28;23565;-73
2023/02/16 01:12:00;;;;;;;68.68;36.42;;;;;;;-146.25;100.00;52461.47;2080006;28;30179;-73
2023/02/16 01:13:05;;;;;;;68.30;35.45;;;;;;;-146.25;100.00;52463.50;2080802;28;20037;-73
2023/02/16 01:14:12;;;;;;;63.72;35.83;;;;;;;-146.25;99.99;52449.31;2064014;28;21019;-73
2023/02/16 01:15:17;;;;;;;65.35;34.45;;;;;;;-146.25;99.96;52441.19;2065904;28;28191;-73
2023/02/16 01:16:24;;;;;;;67.63;36.22;;;;;;;-146.25;100.00;52443.22;2071685;28;26280;-73
2023/02/16 01:17:26;;;;;;;66.70;35.88;;;;;;;-146.25;99.97;52461.47;2064251;28;27855;-73
2023/02/16 01:18:28;;;;;;;66.50;36.30;;;;;;;-146.25;100.00;52469.56;2072220;28;20967;-72
2023/02/16 01:19:29;;;;;;;70.38;37.53;;;;;;;-146.25;99.83;52441.19;2080425;28;30344;-73
2023/02/16 01:20:32;;;;;;;70.40;36.92;;;;;;;-146.25;99.98;52459.44;2080855;28;24261;-73
2023/02/16 01:21:35;;;;;;;66.30;36.05;;;;;;;-146.25;100.00;52429.03;2080990;28;20868;-73
2023/02/16 01:22:36;;;;;;;68.38;36.63;;;;;;;-146.25;100.00;52516.22;2071584;28;27915;-73
2023/02/16 01:23:41;;;;;;;72.55;37.75;;;;;;;-146.25;100.00;52447.28;2064531;28;20042;-73
2023/02/16 01:24:42;;;;;;;61.47;35.25;;;;;;;-146.25;100.00;52475.66;2063532;28;26533;-73
2023/02/16 01:25:44;;;;;;;76.93;36.38;;;;;;;-146.25;100.00;52453.34;2072406;28;20042;-72
2023/02/16 01:26:49;;;;;;;66.50;38.03;;;;;;;-146.25;100.00;52445.25;2081033;28;20045;-72
2023/02/16 01:27:52;;;;;;;66.78;35.63;;;;;;;-146.25;100.00;52467.56;2074187;28;37381;-73
2023/02/16 01:28:54;;;;;;;69.20;36.40;;;;;;;-146.25;100.00;52431.06;2071912;28;23272;-73
2023/02/16 01:29:56;;;;;;;71.60;37.17;;;;;;;-146.25;100.00;52439.16;2063779;28;26861;-73
2023/02/16 01:30:57;;;;;;;66.10;35.97;;;;;;;-146.25;100.00;52467.56;2055174;28;32330;-73
2023/02/16 01:31:59;;;;;;;66.25;34.58;;;;;;;-146.25;99.86;52424.97;2071654;28;20061;-73
2023/02/16 01:33:01;;;;;;;64.50;36.47;;;;;;;-146.25;100.00;52453.34;2063391;28;32352;-73
2023/02/16 01:34:03;;;;;;;69.75;38.03;;;;;;;-146.25;100.00;52467.56;2064280;28;21112;-73
2023/02/16 01:35:05;;;;;;;65.85;35.47;;;;;;;-146.25;100.00;52429.03;2063720;28;30342;-73
2023/02/16 01:36:25;;;;;;;75.20;37.67;;;;;;;-146.25;100.00;52447.28;2064109;28;35479;-73
2023/02/16 01:37:27;;;;;;;69.15;37.08;;;;;;;-146.25;100.00;52459.44;2077612;28;20930;-73
2023/02/16 01:38:29;;;;;;;67.45;36.85;;;;;;;-146.25;100.00;52445.25;2071525;28;33152;-72
2023/02/16 01:39:31;;;;;;;68.50;37.45;;;;;;;-146.25;100.00;52469.56;2072362;28;29862;-73
2023/02/16 01:40:32;;;;;;;61.67;35.47;;;;;;;-146.25;100.00;52473.63;2063624;28;30292;-73
2023/02/16 01:41:49;;;;;;;68.78;36.42;;;;;;;-146.25;100.00;52453.34;2063299;28;28934;-73
2023/02/16 01:43:03;;;;;;;66.00;36.85;;;;;;;-146.25;99.94;52429.03;2072363;28;20064;-73
2023/02/16 01:44:16;;;;;;;62.78;34.35;;;;;;;-146.25;100.00;52418.88;2072527;28;30974;-73
2023/02/16 01:45:29;;;;;;;64.43;36.95;;;;;;;-146.25;100.00;52439.16;2072168;28;20928;-73
2023/02/16 01:46:37;;;;;;;66.63;36.72;;;;;;;-146.25;100.00;52465.53;2072537;28;20085;-73
2023/02/16 01:47:53;;;;;;;65.10;36.70;;;;;;;-146.25;100.00;52459.44;2077148;28;34039;-73
2023/02/16 01:48:55;;;;;;;68.50;35.35;;;;;;;-146.25;100.00;52447.28;2076909;28;27697;-78
2023/02/16 01:49:57;;;;;;;63.50;35.50;;;;;;;-146.25;100.00;52451.31;2079363;28;22903;-73
2023/02/16 01:51:23;;;;;;;66.30;36.40;;;;;;;-146.25;100.00;52493.91;2080114;28;20045;-73
2023/02/16 01:52:36;;;;;;;64.80;36.20;;;;;;;-146.25;100.00;52429.03;2072125;28;31115;-73
2023/02/16 01:53:49;;;;;;;64.10;36.53;;;;;;;-146.25;100.00;52477.69;2072084;28;20923;-73
2023/02/16 01:55:13;;;;;;;70.28;36.00;;;;;;;-146.25;100.00;52447.28;2070198;28;28674;-73
2023/02/16 01:56:35;;;;;;;63.33;34.53;;;;;;;-146.25;100.00;52424.97;2063454;28;30013;-73
2023/02/16 01:58:00;;;;;;;66.88;35.95;;;;;;;-146.25;100.00;52443.22;2070373;28;20038;-73
2023/02/16 01:59:59;;;;;;;68.05;36.80;;;;;;;-146.25;100.00;52431.06;2071584;28;30291;-73
2023/02/16 02:01:03;;;;;;;71.50;37.42;;;;;;;-146.25;100.00;52469.56;2080606;28;24891;-73
2023/02/16 02:02:35;;;;;;;66.82;34.10;;;;;;;-146.25;100.00;52481.75;2072245;28;20049;-73
2023/02/16 02:05:34;;;;;;;70.32;36.17;;;;;;;-146.25;100.00;52457.41;2071550;28;26047;-73
2023/02/16 02:06:36;;;;;;;72.25;36.63;;;;;;;-146.25;100.00;52441.19;2076862;28;34387;-73
2023/02/16 02:07:55;;;;;;;66.53;35.47;;;;;;;-146.25;100.00;52449.31;2080104;28;20042;-73
2023/02/16 02:09:12;;;;;;;67.32;36.63;;;;;;;-146.25;100.00;52439.16;2071868;28;20133;-72
2023/02/16 02:10:34;;;;;;;66.18;37.13;;;;;;;-146.25;100.00;52441.19;2065443;28;20055;-73
2023/02/16 02:11:48;;;;;;;68.07;34.70;;;;;;;-146.25;100.00;52435.09;2074859;28;20903;-73
2023/02/16 02:12:58;;;;;;;71.25;38.30;;;;;;;-146.25;100.00;52467.56;2079769;28;26924;-72
2023/02/16 02:14:23;;;;;;;71.70;36.95;;;;;;;-146.25;100.00;52463.50;2080005;28;20042;-73
2023/02/16 02:15:29;;;;;;;74.47;38.13;;;;;;;-146.25;100.00;52479.72;2072034;28;20318;-72
2023/02/16 02:16:31;;;;;;;70.70;37.78;;;;;;;-146.25;100.00;52445.25;2071366;28;28612;-73
2023/02/16 02:17:35;;;;;;;70.88;37.45;;;;;;;-146.25;100.00;52457.41;2063983;28;20051;-73
2023/02/16 02:18:37;;;;;;;68.00;37.42;;;;;;;-146.25;100.00;52435.09;2063737;28;20043;-73
2023/02/16 02:19:52;;;;;;;68.85;38.25;;;;;;;-146.25;100.00;52433.06;2071310;28;20046;-73
2023/02/16 02:23:32;;;;;;;68.30;35.88;;;;;;;-146.25;100.00;52451.31;2063519;28;20166;-73
2023/02/16 02:24:56;;;;;;;70.50;36.47;;;;;;;-146.25;100.00;52455.38;2067885;28;20943;-73
2023/02/16 02:26:46;;;;;;;70.45;36.35;;;;;;;-146.25;100.00;52433.06;2075259;28;20891;-73
2023/02/16 02:28:07;;;;;;;71.70;36.97;;;;;;;-146.25;100.00;52465.53;2079651;28;20824;-73
2023/02/16 02:29:39;;;;;;;75.85;37.13;;;;;;;-146.25;100.00;52441.19;2079165;28;25937;-73
2023/02/16 02:31:12;;;;;;;72.68;37.17;;;;;;;-146.25;100.00;52471.59;2071864;28;20797;-73
2023/02/16 02:32:42;;;;;;;73.53;37.70;;;;;;;-146.25;100.00;52485.81;2075994;28;22353;-73
2023/02/16 02:33:54;;;;;;;64.88;35.60;;;;;;;-146.25;100.00;52441.19;2071285;28;20049;-72
2023/02/16 02:35:14;;;;;;;76.22;39.33;;;;;;;-146.25;100.00;52433.06;2071784;28;20137;-72
2023/02/16 02:36:50;;;;;;;77.40;38.58;;;;;;;-146.25;100.00;52518.25;2066464;28;20034;-72
2023/02/16 02:38:21;;;;;;;71.22;38.08;;;;;;;-146.25;100.00;52469.56;2068034;28;20038;-73
2023/02/16 02:40:12;;;;;;;74.93;37.75;;;;;;;-146.25;100.00;52461.47;2067087;28;20050;-72
2023/02/16 02:42:02;;;;;;;75.43;38.22;;;;;;;-146.25;100.00;52457.41;2071209;28;27523;-73
2023/02/16 02:43:59;;;;;;;73.78;36.95;;;;;;;-146.25;100.00;52483.78;2063082;28;20098;-73
2023/02/16 02:45:08;;;;;;;69.05;37.45;;;;;;;-146.25;100.00;52469.56;2038190;28;20044;-72
2023/02/16 02:46:23;;;;;;;73.65;38.70;;;;;;;-146.25;100.00;52435.09;2064100;28;20046;-73
2023/02/16 02:47:46;;;;;;;75.22;38.33;;;;;;;-146.25;100.00;52473.63;2064909;28;20900;-72
2023/02/16 02:48:50;;;;;;;73.32;39.03;;;;;;;-146.25;100.00;52493.91;2074578;28;20078;-73
2023/02/16 02:49:53;;;;;;;71.75;38.63;;;;;;;-146.25;100.00;52491.88;2071654;28;20050;-73
2023/02/16 02:52:24;;;;;;;72.18;37.40;;;;;;;-146.25;100.00;52485.81;2068316;28;20467;-73
2023/02/16 02:53:30;;;;;;;73.43;37.65;;;;;;;-146.25;100.00;52453.34;2067734;28;20619;-74
2023/02/16 03:00:46;;;;;;;79.65;39.50;;;;;;;-146.25;100.00;52463.50;2059922;28;21025;-73
2023/02/16 03:01:56;;;;;;;79.47;39.50;;;;;;;-146.25;100.00;52433.06;2066201;28;20085;-73
2023/02/16 03:03:26;;;;;;;75.35;38.67;;;;;;;-146.25;100.00;52481.75;2074659;28;20045;-73
2023/02/16 03:04:31;;;;;;;75.38;39.90;;;;;;;-146.25;100.00;52471.59;2063338;28;20047;-73
2023/02/16 03:05:37;;;;;;;76.18;40.03;;;;;;;-146.25;100.00;52459.44;2059828;28;20046;-73
2023/02/16 03:06:44;;;;;;;70.22;39.13;;;;;;;-146.25;100.00;52485.81;2056137;28;20032;-73
2023/02/16 03:07:52;;;;;;;79.57;39.47;;;;;;;-146.25;100.00;52451.31;2066205;28;20039;-72
2023/02/16 03:09:10;;;;;;;77.93;40.30;;;;;;;-146.25;100.00;52461.47;2070828;28;33558;-73
2023/02/16 03:13:32;;;;;;;79.97;40.72;;;;;;;-146.25;100.00;52510.13;2072659;28;37243;-73
2023/02/16 03:14:41;;;;;;;77.25;40.00;;;;;;;-146.25;100.00;52471.59;2071249;28;35337;-73
2023/02/16 03:15:46;;;;;;;70.93;37.50;;;;;;;-146.25;100.00;52471.59;2074659;28;37327;-73
2023/02/16 03:29:19;;;;;;;78.95;40.00;;;;;;;-146.25;100.00;52420.91;2076826;28;38030;-73
2023/02/16 03:30:25;;;;;;;77.38;38.85;;;;;;;-146.25;100.00;52443.22;2076479;28;20038;-73
2023/02/16 03:31:32;;;;;;;72.22;38.95;;;;;;;-146.25;100.00;52473.63;2070737;28;36433;-73
2023/02/16 03:32:34;;;;;;;78.90;40.45;;;;;;;-146.25;100.00;52471.59;2071016;28;35834;-73
2023/02/16 03:33:36;;;;;;;72.85;39.05;;;;;;;-146.25;100.00;52443.22;2071306;28;35907;-73
2023/02/16 03:34:39;;;;;;;76.28;40.00;;;;;;;-146.25;100.00;52469.56;2062870;28;32408;-73
2023/02/16 03:35:42;;;;;;;77.85;40.00;;;;;;;-146.25;100.00;52453.34;2062674;28;36331;-73
2023/02/16 03:36:47;;;;;;;80.13;41.10;;;;;;;-146.25;100.00;52455.38;2070726;28;37148;-72
2023/02/16 03:37:49;;;;;;;79.40;40.28;;;;;;;-146.25;100.00;52429.03;2071277;28;33522;-73
2023/02/16 03:38:54;;;;;;;75.57;41.80;;;;;;;-146.25;100.00;52453.34;2062792;28;37909;-73
2023/02/16 03:41:16;;;;;;;76.05;39.30;;;;;;;-146.25;100.00;52461.47;2062616;28;35247;-73
2023/02/16 03:42:21;;;;;;;74.10;40.35;;;;;;;-146.25;100.00;52487.81;2065395;28;37286;-73
2023/02/16 03:43:25;;;;;;;77.50;40.05;;;;;;;-146.25;100.00;52465.53;2070980;28;34141;-72
2023/02/16 03:44:27;;;;;;;78.10;40.25;;;;;;;-146.25;100.00;52461.47;2062638;28;36111;-73
2023/02/16 03:45:33;;;;;;;75.50;39.50;;;;;;;-146.25;100.00;52400.63;2071231;28;36294;-72
2023/02/16 03:46:35;;;;;;;75.40;38.45;;;;;;;-146.25;100.00;52475.66;2078176;28;34664;-73
2023/02/16 03:47:37;;;;;;;72.93;39.03;;;;;;;-146.25;100.00;52441.19;2071509;28;33160;-72
2023/02/16 03:48:39;;;;;;;75.40;39.70;;;;;;;-146.25;100.00;52463.50;2071216;28;34937;-73
2023/02/16 03:49:41;;;;;;;72.53;39.05;;;;;;;-146.25;100.00;52461.47;2071271;28;38520;-73
2023/02/16 03:50:42;;;;;;;76.70;40.88;;;;;;;-146.25;100.00;52457.41;2071369;28;31871;-73
2023/02/16 03:51:44;;;;;;;74.30;40.65;;;;;;;-146.25;100.00;52481.75;2071447;28;37815;-73
2023/02/16 03:52:48;;;;;;;74.10;40.83;;;;;;;-146.25;100.00;52477.69;2062310;28;36867;-73
2023/02/16 03:53:50;;;;;;;66.07;37.47;;;;;;;-146.25;100.00;52465.53;2063556;28;20927;-73
2023/02/16 03:54:52;;;;;;;76.93;40.55;;;;;;;-146.25;100.00;52487.81;2071096;28;34748;-73
2023/02/16 03:55:53;;;;;;;72.85;40.22;;;;;;;-146.25;100.00;52433.06;2071606;28;35194;-73
2023/02/16 03:56:55;;;;;;;76.28;41.28;;;;;;;-146.25;100.00;52459.44;2070975;28;37834;-72
2023/02/16 03:57:57;;;;;;;79.45;41.78;;;;;;;-146.25;100.00;52437.13;2078165;28;20135;-73
2023/02/16 03:58:59;;;;;;;78.75;40.42;;;;;;;-146.25;100.00;52459.44;2079001;28;35362;-73
2023/02/16 04:00:00;;;;;;;76.57;40.63;;;;;;;-146.25;100.00;52467.56;2079851;28;32668;-73
2023/02/16 04:01:02;;;;;;;77.47;40.45;;;;;;;-146.25;100.00;52437.13;2079308;28;33071;-72
2023/02/16 04:02:04;;;;;;;71.28;40.92;;;;;;;-146.25;100.00;52469.56;2078921;28;35940;-72
2023/02/16 04:03:07;;;;;;;77.32;41.55;;;;;;;-146.25;100.00;52471.59;2079507;28;20119;-73
2023/02/16 04:04:09;;;;;;;79.70;42.38;;;;;;;-146.25;100.00;52449.31;2070723;28;36208;-73
2023/02/16 04:05:11;;;;;;;73.75;40.67;;;;;;;-146.25;100.00;52465.53;2070918;28;26377;-73
2023/02/16 04:06:13;;;;;;;76.45;40.75;;;;;;;-146.25;100.00;52469.56;2079743;28;20808;-73
2023/02/16 04:07:14;;;;;;;70.63;38.88;;;;;;;-146.25;100.00;52457.41;2078626;28;37495;-73
2023/02/16 04:08:16;;;;;;;70.75;40.72;;;;;;;-146.25;100.00;52433.06;2079598;28;32756;-73
2023/02/16 04:09:18;;;;;;;77.20;40.75;;;;;;;-146.25;100.00;52422.94;2079505;28;20038;-72
2023/02/16 04:10:20;;;;;;;82.78;41.10;;;;;;;-146.25;100.00;52453.34;2078526;28;36108;-72
2023/02/16 04:12:44;;;;;;;73.28;39.03;;;;;;;-146.25;100.00;52424.97;2079957;28;31373;-72
2023/02/16 04:13:49;;;;;;;75.35;39.63;;;;;;;-146.25;100.00;52437.13;2070374;28;35985;-72
2023/02/16 04:14:51;;;;;;;78.68;41.78;;;;;;;-146.25;100.00;52485.81;2072172;28;20836;-72
2023/02/16 04:15:52;;;;;;;78.28;41.13;;;;;;;-146.25;100.00;52491.88;2070364;28;36257;-72
2023/02/16 04:16:55;;;;;;;74.35;40.45;;;;;;;-146.25;100.00;52469.56;2071068;28;33015;-72
2023/02/16 04:17:58;;;;;;;84.03;40.70;;;;;;;-146.25;100.00;52439.16;2079370;28;33887;-72
2023/02/16 04:18:59;;;;;;;78.05;43.13;;;;;;;-146.25;100.00;52479.72;2078909;28;38170;-72
2023/02/16 04:20:04;;;;;;;75.47;41.50;;;;;;;-146.25;100.00;52459.44;2080218;28;20343;-72
2023/02/16 04:21:06;;;;;;;75.30;39.65;;;;;;;-146.25;100.00;52447.28;2079481;28;35778;-73
2023/02/16 04:22:08;;;;;;;78.78;41.72;;;;;;;-146.25;100.00;52447.28;2070334;28;36217;-72
2023/02/16 04:23:10;;;;;;;76.30;39.70;;;;;;;-146.25;100.00;52473.63;2070805;28;31862;-72
2023/02/16 04:24:11;;;;;;;79.97;42.42;;;;;;;-146.25;100.00;52483.78;2078545;28;36919;-72
2023/02/16 04:25:14;;;;;;;77.88;42.22;;;;;;;-146.25;100.00;52433.06;2078828;28;38471;-72
2023/02/16 04:26:16;;;;;;;74.25;40.63;;;;;;;-146.25;100.00;52435.09;2079318;28;36587;-72
2023/02/16 04:27:18;;;;;;;78.63;41.08;;;;;;;-146.25;100.00;52477.69;2079289;28;37719;-72
2023/02/16 04:28:20;;;;;;;72.30;39.90;;;;;;;-146.25;100.00;52455.38;2078463;28;31532;-72
2023/02/16 04:29:21;;;;;;;78.28;42.15;;;;;;;-146.25;100.00;52475.66;2078848;28;37979;-72
2023/02/16 04:30:28;;;;;;;81.40;41.50;;;;;;;-146.25;100.00;52477.69;2078668;28;34610;-72
2023/02/16 04:31:30;;;;;;;79.53;42.95;;;;;;;-146.25;100.00;52400.63;2070546;28;33855;-73
2023/02/16 04:32:32;;;;;;;75.18;41.45;;;;;;;-146.25;100.00;52469.56;2071187;28;37848;-72
2023/02/16 04:33:33;;;;;;;85.88;42.65;;;;;;;-146.25;100.00;52483.78;2079741;28;20045;-72
2023/02/16 04:34:35;;;;;;;75.93;41.22;;;;;;;-146.25;100.00;52449.31;2078488;28;38130;-72
2023/02/16 04:35:37;;;;;;;75.38;42.38;;;;;;;-146.25;100.00;52453.34;2079484;28;36109;-72
2023/02/16 04:36:39;;;;;;;76.80;42.22;;;;;;;-146.25;100.00;52453.34;2079674;28;34403;-72
2023/02/16 04:37:41;;;;;;;80.95;42.83;;;;;;;-146.25;100.00;52463.50;2079116;28;37307;-72
2023/02/16 04:38:43;;;;;;;77.38;41.42;;;;;;;-146.25;100.00;52483.78;2079282;28;35515;-72
2023/02/16 04:39:45;;;;;;;79.70;43.05;;;;;;;-146.25;100.00;52457.41;2078846;28;35584;-72
2023/02/16 04:40:46;;;;;;;74.72;42.15;;;;;;;-146.25;100.00;52477.69;2070474;28;36355;-72
2023/02/16 04:41:50;;;;;;;81.95;42.45;;;;;;;-146.25;100.00;52429.03;2070741;28;32869;-72
2023/02/16 04:42:52;;;;;;;79.00;42.22;;;;;;;-146.25;100.00;52467.56;2079115;28;38068;-72
2023/02/16 04:43:54;;;;;;;81.10;43.38;;;;;;;-146.25;100.00;52461.47;2079070;28;35840;-72
2023/02/16 04:44:55;;;;;;;82.93;43.65;;;;;;;-146.25;100.00;52433.06;2079265;28;32396;-72
2023/02/16 04:45:57;;;;;;;80.43;40.22;;;;;;;-146.25;100.00;52404.69;2070390;28;40812;-72
2023/02/16 04:46:59;;;;;;;80.63;42.20;;;;;;;-146.25;100.00;52445.25;2070614;28;33197;-72
2023/02/16 04:48:02;;;;;;;80.25;42.08;;;;;;;-146.25;100.00;52453.34;2079031;28;33476;-72
2023/02/16 04:49:06;;;;;;;83.90;43.03;;;;;;;-146.25;100.00;52457.41;2078400;28;36311;-72
2023/02/16 04:50:10;;;;;;;80.72;42.90;;;;;;;-146.25;100.00;52463.50;2070383;28;34420;-72
2023/02/16 04:51:11;;;;;;;82.65;43.13;;;;;;;-146.25;100.00;52449.31;2070347;28;39507;-72
2023/02/16 04:52:13;;;;;;;79.07;42.85;;;;;;;-146.25;100.00;52427.00;2079312;28;34626;-72
2023/02/16 04:53:15;;;;;;;80.03;43.72;;;;;;;-146.25;100.00;52465.53;2080083;28;34813;-72
2023/02/16 04:54:17;;;;;;;83.30;43.63;;;;;;;-146.25;100.00;52429.03;2080864;28;36960;-72
2023/02/16 04:55:18;;;;;;;81.10;42.47;;;;;;;-146.25;100.00;52441.19;2080449;28;35282;-72
2023/02/16 04:56:20;;;;;;;85.57;45.20;;;;;;;-146.25;100.00;52447.28;2080409;28;35042;-72
2023/02/16 04:57:24;;;;;;;83.18;42.55;;;;;;;-146.25;100.00;52473.63;2080535;28;35344;-72
2023/02/16 04:58:25;;;;;;;80.35;44.10;;;;;;;-146.25;100.00;52457.41;2079965;28;34603;-72
2023/02/16 04:59:29;;;;;;;80.43;43.13;;;;;;;-146.25;100.00;52481.75;2079867;28;38092;-72
2023/02/16 05:00:34;;;;;;;80.03;43.47;;;;;;;-146.25;100.00;52457.41;2080493;28;35028;-72
2023/02/16 05:01:37;;;;;;;85.70;43.67;;;;;;;-146.25;100.00;52457.41;2080694;28;34280;-72
2023/02/16 05:02:39;;;;;;;88.18;45.75;;;;;;;-146.25;100.00;52473.63;2080527;28;37484;-72
2023/02/16 05:03:40;;;;;;;84.80;42.95;;;;;;;-146.25;100.00;52453.34;2080778;28;31529;-72
2023/02/16 05:04:42;;;;;;;84.60;43.40;;;;;;;-146.25;100.00;52449.31;2080758;28;34429;-72
2023/02/16 05:05:44;;;;;;;84.30;44.92;;;;;;;-146.25;100.00;52481.75;2071889;28;37009;-72
2023/02/16 05:06:46;;;;;;;78.72;43.10;;;;;;;-146.25;100.00;52463.50;2071507;28;32354;-72
2023/02/16 05:07:47;;;;;;;84.55;44.05;;;;;;;-146.25;100.00;52453.34;2079924;28;36572;-72
2023/02/16 05:08:49;;;;;;;83.45;44.17;;;;;;;-146.25;100.00;52431.06;2080706;28;34198;-74
2023/02/16 05:09:51;;;;;;;81.55;43.63;;;;;;;-146.25;100.00;52475.66;2080845;28;21070;-72
2023/02/16 05:14:53;;;;;;;60.38;32.65;;;;;;;-146.25;100.00;52461.47;2080979;28;39081;-72
2023/02/16 05:15:55;;;;;;;81.32;41.67;;;;;;;-146.25;100.00;52445.25;2080295;28;35234;-72
2023/02/16 05:16:57;;;;;;;78.13;43.08;;;;;;;-146.25;100.00;52424.97;2080683;28;35418;-72
2023/02/16 05:17:59;;;;;;;80.70;44.58;;;;;;;-146.25;100.00;52441.19;2080791;28;20811;-72
2023/02/16 05:19:01;;;;;;;86.68;44.25;;;;;;;-146.25;100.00;52457.41;2080575;28;31314;-72
2023/02/16 05:20:03;;;;;;;82.47;44.10;;;;;;;-146.25;100.00;52457.41;2079637;28;37912;-72
2023/02/16 05:22:38;;;;;;;80.40;42.47;;;;;;;-146.25;100.00;52473.63;2071065;28;36792;-72
2023/02/16 05:23:39;;;;;;;76.28;43.60;;;;;;;-146.25;100.00;52463.50;2072076;28;33573;-72
2023/02/16 05:24:45;;;;;;;81.85;43.60;;;;;;;-146.25;100.00;52445.25;2071241;28;37504;-72
2023/02/16 05:25:47;;;;;;;75.45;41.97;;;;;;;-146.25;100.00;52449.31;2080884;28;32161;-72
2023/02/16 05:26:48;;;;;;;76.55;43.58;;;;;;;-146.25;100.00;52461.47;2080484;28;30674;-72
2023/02/16 05:27:50;;;;;;;80.75;44.10;;;;;;;-146.25;100.00;52475.66;2071201;28;35398;-72
2023/02/16 05:28:52;;;;;;;79.50;43.58;;;;;;;-146.25;100.00;52471.59;2071780;28;34334;-72
2023/02/16 05:29:54;;;;;;;78.15;43.72;;;;;;;-146.25;100.00;52455.38;2080268;28;37335;-72
2023/02/16 05:30:56;;;;;;;75.35;42.63;;;;;;;-146.25;100.00;52443.22;2080355;28;32683;-72
2023/02/16 05:31:59;;;;;;;78.07;43.65;;;;;;;-146.25;100.00;52447.28;2081243;28;20038;-72
2023/02/16 05:33:03;;;;;;;73.88;42.63;;;;;;;-146.25;100.00;52477.69;2100837;22;20049;-80
2023/02/16 05:34:05;;;;;;;80.35;44.08;;;;;;;-146.25;99.79;52465.53;2080532;28;35692;-78
2023/02/16 05:35:06;;;;;;;76.95;43.03;;;;;;;-146.25;99.89;52481.75;2079841;28;35612;-78
2023/02/16 05:36:08;;;;;;;77.07;40.88;;;;;;;-146.25;99.51;52441.19;2087933;28;28005;-78
2023/02/16 05:37:12;;;;;;;78.10;42.42;;;;;;;-146.25;99.90;52453.34;2087645;28;33513;-80
2023/02/16 05:38:14;;;;;;;74.47;40.97;;;;;;;-146.25;99.74;52475.66;2079838;28;33520;-79
2023/02/16 05:39:16;;;;;;;78.45;42.22;;;;;;;-146.25;99.54;52447.28;2071958;28;31922;-78
2023/02/16 05:40:18;;;;;;;72.68;42.95;;;;;;;-146.25;99.77;52493.91;2080568;28;20045;-78
2023/02/16 05:41:22;;;;;;;75.43;43.28;;;;;;;-146.25;100.00;52455.38;2087547;28;38557;-78